createdAt,value
2018-04-08T00:04:03.791Z,4.57
2018-04-08T00:08:55.193Z,5.97
2018-04-08T00:13:46.589Z,5.40
2018-04-08T00:18:38.743Z,5.83
2018-04-08T00:23:30.937Z,5.87
2018-04-08T00:28:22.352Z,6.07
2018-04-08T00:33:13.827Z,6.17
2018-04-08T00:38:05.237Z,5.83
2018-04-08T00:42:56.660Z,6.43
2018-04-08T00:47:48.018Z,6.20
2018-04-08T00:52:39.457Z,6.23
2018-04-08T00:57:31.758Z,6.30
2018-04-08T01:02:23.173Z,6.23
2018-04-08T01:07:15.371Z,5.87
2018-04-08T01:12:06.847Z,6.40
2018-04-08T01:16:59.070Z,6.07
2018-04-08T01:21:50.566Z,6.00
2018-04-08T01:26:41.916Z,6.47
2018-04-08T01:31:33.305Z,6.13
2018-04-08T01:36:24.739Z,5.97
2018-04-08T01:41:16.136Z,6.17
2018-04-08T01:46:07.588Z,6.10
2018-04-08T01:50:59.750Z,5.77
2018-04-08T01:55:51.156Z,6.10
2018-04-08T02:00:42.596Z,6.23
2018-04-08T02:05:34.721Z,6.27
2018-04-08T02:10:26.101Z,6.47
2018-04-08T02:15:17.510Z,7.07
2018-04-08T02:20:09.747Z,6.17
2018-04-08T02:25:01.148Z,6.20
2018-04-08T02:29:52.571Z,6.40
2018-04-08T02:34:44.016Z,6.73
2018-04-08T02:39:35.410Z,6.40
2018-04-08T02:44:26.787Z,6.50
2018-04-08T02:49:18.192Z,6.47
2018-04-08T02:54:09.607Z,6.13
2018-04-08T02:59:01.050Z,6.83
2018-04-08T03:03:52.469Z,6.30
2018-04-08T03:08:43.892Z,6.27
2018-04-08T03:13:35.283Z,7.03
2018-04-08T03:18:27.732Z,6.73
2018-04-08T03:23:19.120Z,6.93
2018-04-08T03:28:10.556Z,7.10
2018-04-08T03:33:01.941Z,7.47
2018-04-08T03:37:53.335Z,6.93
2018-04-08T03:42:44.749Z,7.33
2018-04-08T03:47:36.224Z,6.97
2018-04-08T03:52:27.985Z,6.73
2018-04-08T03:57:20.197Z,7.00
2018-04-08T04:02:11.908Z,7.33
2018-04-08T04:07:03.315Z,7.47
2018-04-08T04:11:55.425Z,6.53
2018-04-08T04:16:46.866Z,7.27
2018-04-08T04:21:50.418Z,6.83
2018-04-08T04:26:41.844Z,6.60
2018-04-08T04:31:34.053Z,6.80
2018-04-08T04:36:25.465Z,7.13
2018-04-08T04:41:16.840Z,6.73
2018-04-08T04:46:09.059Z,7.07
2018-04-08T04:51:00.495Z,6.77
2018-04-08T04:55:51.916Z,6.90
2018-04-08T05:00:43.347Z,6.60
2018-04-08T05:05:34.784Z,7.23
2018-04-08T05:10:26.174Z,7.27
2018-04-08T05:15:17.572Z,7.47
2018-04-08T05:20:09.736Z,6.20
2018-04-08T05:25:01.943Z,6.27
2018-04-08T05:29:54.041Z,6.70
2018-04-08T05:34:45.427Z,6.67
2018-04-08T05:39:36.815Z,6.27
2018-04-08T05:44:28.419Z,6.77
2018-04-08T05:49:21.661Z,6.70
2018-04-08T05:54:13.068Z,6.83
2018-04-08T05:59:04.468Z,7.10
2018-04-08T06:03:56.558Z,7.10
2018-04-08T06:08:47.937Z,6.77
2018-04-08T06:13:40.078Z,6.60
2018-04-08T06:18:31.518Z,6.57
2018-04-08T06:23:30.833Z,7.40
2018-04-08T06:28:23.134Z,7.60
2018-04-08T06:33:14.579Z,7.20
2018-04-08T06:38:06.067Z,7.27
2018-04-08T06:42:57.503Z,6.73
2018-04-08T06:47:48.908Z,7.40
2018-04-08T06:52:41.028Z,7.50
2018-04-08T06:57:32.417Z,7.43
2018-04-08T07:02:23.842Z,7.53
2018-04-08T07:07:15.238Z,7.73
2018-04-08T07:12:06.632Z,8.20
2018-04-08T07:16:58.026Z,7.33
2018-04-08T07:21:50.178Z,7.87
2018-04-08T07:26:41.577Z,8.40
2018-04-08T07:31:32.977Z,8.37
2018-04-08T07:36:24.448Z,8.40
2018-04-08T07:41:15.865Z,8.13
2018-04-08T07:46:07.239Z,7.93
2018-04-08T07:50:58.652Z,8.27
2018-04-08T07:55:50.828Z,7.70
2018-04-08T08:00:42.207Z,8.07
2018-04-08T08:05:33.645Z,8.60
2018-04-08T08:10:25.028Z,8.50
2018-04-08T08:15:16.519Z,8.30
2018-04-08T08:20:08.656Z,8.30
2018-04-08T08:25:00.006Z,8.57
2018-04-08T08:29:52.191Z,9.43
2018-04-08T08:34:43.566Z,9.43
2018-04-08T08:39:34.958Z,9.27
2018-04-08T08:44:26.327Z,9.17
2018-04-08T08:49:17.711Z,9.20
2018-04-08T08:54:09.116Z,9.10
2018-04-08T08:59:01.275Z,9.27
2018-04-08T09:03:52.702Z,9.20
2018-04-08T09:08:44.274Z,9.50
2018-04-08T09:13:35.702Z,9.20
2018-04-08T09:18:27.147Z,9.43
2018-04-08T09:28:42.638Z,9.27
2018-04-08T09:33:34.080Z,9.73
2018-04-08T09:38:25.415Z,9.87
2018-04-08T09:43:16.838Z,10.40
2018-04-08T09:48:08.204Z,10.77
2018-04-08T09:52:59.600Z,10.67
2018-04-08T09:57:53.029Z,10.60
2018-04-08T10:02:54.402Z,11.47
2018-04-08T10:07:45.834Z,10.80
2018-04-08T10:12:37.576Z,11.13
2018-04-08T10:17:29.710Z,11.73
2018-04-08T10:22:21.235Z,13.03
2018-04-08T10:27:12.635Z,12.90
2018-04-08T10:32:04.028Z,12.23
2018-04-08T10:36:56.191Z,13.33
2018-04-08T10:41:48.317Z,13.73
2018-04-08T10:46:40.450Z,12.37
2018-04-08T10:51:32.005Z,13.40
2018-04-08T10:56:24.166Z,14.53
2018-04-08T11:01:16.284Z,14.07
2018-04-08T11:06:07.656Z,13.87
2018-04-08T11:10:59.068Z,14.37
2018-04-08T11:15:51.223Z,13.20
2018-04-08T11:20:43.438Z,13.10
2018-04-08T11:25:34.888Z,14.23
2018-04-08T11:30:26.332Z,14.10
2018-04-08T11:35:18.412Z,13.63
2018-04-08T11:40:09.810Z,13.73
2018-04-08T11:45:02.829Z,13.00
2018-04-08T11:49:54.258Z,14.50
2018-04-08T11:54:45.687Z,14.17
2018-04-08T11:59:37.113Z,14.27
2018-04-08T12:04:28.576Z,14.53
2018-04-08T12:09:19.974Z,13.90
2018-04-08T12:14:11.397Z,13.10
2018-04-08T12:19:02.821Z,13.00
2018-04-08T12:23:54.253Z,11.47
2018-04-08T12:28:45.745Z,12.40
2018-04-08T12:33:37.160Z,10.70
2018-04-08T12:38:28.590Z,10.73
2018-04-08T12:43:19.960Z,13.60
2018-04-08T12:48:12.098Z,15.40
2018-04-08T12:53:04.313Z,14.37
2018-04-08T12:57:55.795Z,14.00
2018-04-08T13:02:47.958Z,13.80
2018-04-08T13:07:39.370Z,13.37
2018-04-08T13:12:31.535Z,14.27
2018-04-08T13:17:22.949Z,13.17
2018-04-08T13:22:15.085Z,12.30
2018-04-08T13:27:06.486Z,11.83
2018-04-08T13:31:57.884Z,9.70
2018-04-08T13:36:49.297Z,8.63
2018-04-08T13:41:41.450Z,8.17
2018-04-08T13:46:33.584Z,7.87
2018-04-08T13:51:25.787Z,7.27
2018-04-08T13:56:17.449Z,5.97
2018-04-08T14:01:08.894Z,5.33
2018-04-08T14:06:00.312Z,6.60
2018-04-08T14:10:51.715Z,4.87
2018-04-08T14:15:43.066Z,5.47
2018-04-08T14:20:34.458Z,5.13
2018-04-08T14:25:25.871Z,5.77
2018-04-08T14:30:17.326Z,5.67
2018-04-08T14:35:09.076Z,4.27
2018-04-08T14:40:00.467Z,5.17
2018-04-08T14:44:52.609Z,4.60
2018-04-08T14:49:44.765Z,2.93
2018-04-08T14:54:36.905Z,3.67
2018-04-08T14:59:29.091Z,3.20
2018-04-08T15:04:20.536Z,3.10
2018-04-08T15:09:11.943Z,3.27
2018-04-08T15:14:03.405Z,2.53
2018-04-08T15:18:54.830Z,2.53
2018-04-08T15:23:46.308Z,3.07
2018-04-08T15:28:38.516Z,2.83
2018-04-08T15:33:29.977Z,2.90
2018-04-08T15:38:21.358Z,3.30
2018-04-08T15:43:12.777Z,3.57
2018-04-08T15:48:04.917Z,3.07
2018-04-08T15:52:57.037Z,3.37
2018-04-08T15:57:48.502Z,3.30
2018-04-08T16:02:40.678Z,3.37
2018-04-08T16:07:32.073Z,3.73
2018-04-08T16:12:24.220Z,3.27
2018-04-08T16:17:16.328Z,4.00
2018-04-08T16:22:07.710Z,4.07
2018-04-08T16:26:59.841Z,3.50
2018-04-08T16:31:52.005Z,3.87
2018-04-08T16:36:44.125Z,4.10
2018-04-08T16:41:35.530Z,3.87
2018-04-08T16:46:26.934Z,3.70
2018-04-08T16:51:18.342Z,3.40
2018-04-08T16:56:10.498Z,3.20
2018-04-08T17:01:01.930Z,3.43
2018-04-08T17:05:53.361Z,4.17
2018-04-08T17:10:45.610Z,3.33
2018-04-08T17:15:37.010Z,3.13
2018-04-08T17:20:28.441Z,2.80
2018-04-08T17:25:19.872Z,2.63
2018-04-08T17:30:11.259Z,3.50
2018-04-08T17:35:02.668Z,3.00
2018-04-08T17:39:54.816Z,2.73
2018-04-08T17:44:46.980Z,2.93
2018-04-08T17:49:38.413Z,3.30
2018-04-08T17:54:29.848Z,2.83
2018-04-08T17:59:21.287Z,2.90
2018-04-08T18:04:12.705Z,4.27
2018-04-08T18:09:04.157Z,3.73
2018-04-08T18:13:55.589Z,3.23
2018-04-08T18:18:46.982Z,3.47
2018-04-08T18:23:39.114Z,3.73
2018-04-08T18:28:30.557Z,4.00
2018-04-08T18:33:22.740Z,3.60
2018-04-08T18:38:14.136Z,4.33
2018-04-08T18:43:06.288Z,6.63
2018-04-08T18:47:58.524Z,4.87
2018-04-08T18:52:49.940Z,4.63
2018-04-08T18:57:41.348Z,5.40
2018-04-08T19:02:32.713Z,6.17
2018-04-08T19:07:24.104Z,6.07
2018-04-08T19:12:15.560Z,5.00
2018-04-08T19:17:07.008Z,5.27
2018-04-08T19:21:58.389Z,5.77
2018-04-08T19:26:49.769Z,8.67
2018-04-08T19:31:41.127Z,9.93
2018-04-08T19:36:33.309Z,10.57
2018-04-08T19:41:24.705Z,7.83
2018-04-08T19:46:16.882Z,7.73
2018-04-08T19:51:08.319Z,8.50
2018-04-08T19:55:59.763Z,9.37
2018-04-08T20:00:51.183Z,9.17
2018-04-08T20:05:42.582Z,7.57
2018-04-08T20:10:34.734Z,8.17
2018-04-08T20:15:26.867Z,10.17
2018-04-08T20:20:19.032Z,7.97
2018-04-08T20:25:11.169Z,6.63
2018-04-08T20:30:03.364Z,7.97
2018-04-08T20:34:54.771Z,7.80
2018-04-08T20:39:46.189Z,8.47
2018-04-08T20:44:38.312Z,9.50
2018-04-08T20:49:29.718Z,8.03
2018-04-08T20:54:21.171Z,8.20
2018-04-08T20:59:13.280Z,7.70
2018-04-08T21:04:04.821Z,7.00
2018-04-08T21:08:56.254Z,6.73
2018-04-08T21:13:48.108Z,8.20
2018-04-08T21:18:39.489Z,6.67
2018-04-08T21:23:31.823Z,7.07
2018-04-08T21:28:23.970Z,7.40
2018-04-08T21:33:16.871Z,6.87
2018-04-08T21:38:09.555Z,7.00
2018-04-08T21:43:01.203Z,7.10
2018-04-08T21:47:52.606Z,6.80
2018-04-08T21:52:44.798Z,6.47
2018-04-08T21:57:36.283Z,6.43
2018-04-08T22:02:27.729Z,7.17
2018-04-08T22:07:19.108Z,7.03
2018-04-08T22:12:11.456Z,7.10
2018-04-08T22:17:04.799Z,6.77
2018-04-08T22:21:56.509Z,6.50
2018-04-08T22:26:51.976Z,6.67
2018-04-08T22:31:44.623Z,5.47
2018-04-08T22:36:36.155Z,5.93
2018-04-08T22:41:28.737Z,5.73
2018-04-08T22:46:21.001Z,5.17
2018-04-08T22:51:12.656Z,6.03
2018-04-08T22:56:04.793Z,6.30
2018-04-08T23:00:56.226Z,5.70
2018-04-08T23:05:47.632Z,6.30
2018-04-08T23:10:39.001Z,5.50
2018-04-08T23:15:31.138Z,4.90
2018-04-08T23:20:23.293Z,5.07
2018-04-08T23:25:15.424Z,4.50
2018-04-08T23:30:06.862Z,5.40
2018-04-08T23:34:59.025Z,5.97
2018-04-08T23:39:51.143Z,5.17
2018-04-08T23:44:42.573Z,5.73
2018-04-08T23:49:34.020Z,6.33
2018-04-08T23:54:25.422Z,5.10
2018-04-08T23:59:16.827Z,4.90
